sensor_id;sensor_type;location;lat;lon;timestamp;P1;durP1;ratioP1;P2;durP2;ratioP2
53036;SDS011;38924;52.134;4.666;2023-11-18T00:01:49;48.35;;;27.45;;
53036;SDS011;38924;52.134;4.666;2023-11-18T00:04:17;46.25;;;26.33;;
53036;SDS011;38924;52.134;4.666;2023-11-18T00:06:43;45.17;;;24.92;;
53036;SDS011;38924;52.134;4.666;2023-11-18T00:09:12;51.80;;;25.38;;
53036;SDS011;38924;52.134;4.666;2023-11-18T00:11:41;40.33;;;25.70;;
53036;SDS011;38924;52.134;4.666;2023-11-18T00:14:10;39.97;;;25.70;;
53036;SDS011;38924;52.134;4.666;2023-11-18T00:16:38;47.10;;;26.88;;
53036;SDS011;38924;52.134;4.666;2023-11-18T00:19:04;39.03;;;25.02;;
53036;SDS011;38924;52.134;4.666;2023-11-18T00:21:30;43.38;;;25.83;;
53036;SDS011;38924;52.134;4.666;2023-11-18T00:23:56;44.13;;;25.10;;
53036;SDS011;38924;52.134;4.666;2023-11-18T00:26:22;44.00;;;25.10;;
53036;SDS011;38924;52.134;4.666;2023-11-18T00:28:53;41.13;;;26.60;;
53036;SDS011;38924;52.134;4.666;2023-11-18T00:31:19;41.80;;;25.05;;
53036;SDS011;38924;52.134;4.666;2023-11-18T00:33:45;41.53;;;27.45;;
53036;SDS011;38924;52.134;4.666;2023-11-18T00:36:13;49.03;;;25.77;;
53036;SDS011;38924;52.134;4.666;2023-11-18T00:38:39;52.97;;;28.67;;
53036;SDS011;38924;52.134;4.666;2023-11-18T00:41:06;46.45;;;26.55;;
53036;SDS011;38924;52.134;4.666;2023-11-18T00:43:31;42.90;;;26.77;;
53036;SDS011;38924;52.134;4.666;2023-11-18T00:45:57;46.42;;;26.17;;
53036;SDS011;38924;52.134;4.666;2023-11-18T00:48:25;45.55;;;26.73;;
53036;SDS011;38924;52.134;4.666;2023-11-18T00:50:51;40.65;;;24.48;;
53036;SDS011;38924;52.134;4.666;2023-11-18T00:53:17;46.22;;;28.13;;
53036;SDS011;38924;52.134;4.666;2023-11-18T00:55:43;47.47;;;25.83;;
53036;SDS011;38924;52.134;4.666;2023-11-18T00:58:08;47.22;;;25.63;;
53036;SDS011;38924;52.134;4.666;2023-11-18T01:00:34;42.13;;;24.92;;
53036;SDS011;38924;52.134;4.666;2023-11-18T01:03:01;47.50;;;26.15;;
53036;SDS011;38924;52.134;4.666;2023-11-18T01:05:27;36.60;;;23.40;;
53036;SDS011;38924;52.134;4.666;2023-11-18T01:07:57;41.30;;;23.60;;
53036;SDS011;38924;52.134;4.666;2023-11-18T01:10:22;39.60;;;22.48;;
53036;SDS011;38924;52.134;4.666;2023-11-18T01:12:48;47.10;;;24.00;;
53036;SDS011;38924;52.134;4.666;2023-11-18T01:15:14;44.47;;;25.67;;
53036;SDS011;38924;52.134;4.666;2023-11-18T01:17:40;42.60;;;26.40;;
53036;SDS011;38924;52.134;4.666;2023-11-18T01:20:06;39.65;;;23.95;;
53036;SDS011;38924;52.134;4.666;2023-11-18T01:22:39;38.85;;;24.30;;
53036;SDS011;38924;52.134;4.666;2023-11-18T01:25:06;40.20;;;23.40;;
53036;SDS011;38924;52.134;4.666;2023-11-18T01:27:34;43.22;;;23.50;;
53036;SDS011;38924;52.134;4.666;2023-11-18T01:30:00;36.55;;;23.85;;
53036;SDS011;38924;52.134;4.666;2023-11-18T01:32:25;42.35;;;23.73;;
53036;SDS011;38924;52.134;4.666;2023-11-18T01:34:51;38.55;;;22.95;;
53036;SDS011;38924;52.134;4.666;2023-11-18T01:37:17;40.20;;;22.60;;
53036;SDS011;38924;52.134;4.666;2023-11-18T01:39:48;30.95;;;21.73;;
53036;SDS011;38924;52.134;4.666;2023-11-18T01:42:14;41.28;;;23.23;;
53036;SDS011;38924;52.134;4.666;2023-11-18T01:44:39;42.70;;;24.40;;
53036;SDS011;38924;52.134;4.666;2023-11-18T01:47:06;46.13;;;23.55;;
53036;SDS011;38924;52.134;4.666;2023-11-18T01:49:34;37.97;;;22.73;;
53036;SDS011;38924;52.134;4.666;2023-11-18T01:52:02;33.88;;;21.95;;
53036;SDS011;38924;52.134;4.666;2023-11-18T01:54:28;35.47;;;21.88;;
53036;SDS011;38924;52.134;4.666;2023-11-18T01:56:54;31.63;;;22.38;;
53036;SDS011;38924;52.134;4.666;2023-11-18T01:59:20;38.70;;;20.30;;
53036;SDS011;38924;52.134;4.666;2023-11-18T02:01:47;38.97;;;21.70;;
53036;SDS011;38924;52.134;4.666;2023-11-18T02:04:14;35.03;;;22.75;;
53036;SDS011;38924;52.134;4.666;2023-11-18T02:06:40;36.50;;;22.20;;
53036;SDS011;38924;52.134;4.666;2023-11-18T02:09:06;44.17;;;23.88;;
53036;SDS011;38924;52.134;4.666;2023-11-18T02:11:34;39.83;;;21.70;;
53036;SDS011;38924;52.134;4.666;2023-11-18T02:14:07;27.58;;;20.05;;
53036;SDS011;38924;52.134;4.666;2023-11-18T02:16:39;30.20;;;20.20;;
53036;SDS011;38924;52.134;4.666;2023-11-18T02:19:09;33.33;;;21.13;;
53036;SDS011;38924;52.134;4.666;2023-11-18T02:21:42;34.47;;;21.20;;
53036;SDS011;38924;52.134;4.666;2023-11-18T02:24:09;33.42;;;19.00;;
53036;SDS011;38924;52.134;4.666;2023-11-18T02:26:35;30.60;;;19.27;;
53036;SDS011;38924;52.134;4.666;2023-11-18T02:29:01;27.65;;;18.13;;
53036;SDS011;38924;52.134;4.666;2023-11-18T02:31:27;30.80;;;19.90;;
53036;SDS011;38924;52.134;4.666;2023-11-18T02:34:00;28.60;;;18.73;;
53036;SDS011;38924;52.134;4.666;2023-11-18T02:36:31;32.13;;;19.50;;
53036;SDS011;38924;52.134;4.666;2023-11-18T02:39:21;32.80;;;19.65;;
53036;SDS011;38924;52.134;4.666;2023-11-18T02:41:48;33.72;;;19.98;;
53036;SDS011;38924;52.134;4.666;2023-11-18T02:44:16;36.92;;;20.45;;
53036;SDS011;38924;52.134;4.666;2023-11-18T02:46:43;33.35;;;19.17;;
53036;SDS011;38924;52.134;4.666;2023-11-18T02:49:09;29.85;;;19.52;;
53036;SDS011;38924;52.134;4.666;2023-11-18T02:51:38;36.25;;;19.70;;
53036;SDS011;38924;52.134;4.666;2023-11-18T02:54:20;33.15;;;20.08;;
53036;SDS011;38924;52.134;4.666;2023-11-18T02:56:45;36.47;;;19.67;;
53036;SDS011;38924;52.134;4.666;2023-11-18T02:59:11;33.83;;;19.30;;
53036;SDS011;38924;52.134;4.666;2023-11-18T03:01:36;30.63;;;17.83;;
53036;SDS011;38924;52.134;4.666;2023-11-18T03:04:06;31.17;;;18.20;;
53036;SDS011;38924;52.134;4.666;2023-11-18T03:06:32;28.20;;;17.33;;
53036;SDS011;38924;52.134;4.666;2023-11-18T03:08:58;32.22;;;21.05;;
53036;SDS011;38924;52.134;4.666;2023-11-18T03:11:24;35.70;;;19.15;;
53036;SDS011;38924;52.134;4.666;2023-11-18T03:13:49;28.80;;;18.23;;
53036;SDS011;38924;52.134;4.666;2023-11-18T03:16:15;26.70;;;19.05;;
53036;SDS011;38924;52.134;4.666;2023-11-18T03:18:42;32.58;;;20.60;;
53036;SDS011;38924;52.134;4.666;2023-11-18T03:21:11;34.33;;;19.75;;
53036;SDS011;38924;52.134;4.666;2023-11-18T03:23:38;31.80;;;18.42;;
53036;SDS011;38924;52.134;4.666;2023-11-18T03:26:04;35.53;;;19.10;;
53036;SDS011;38924;52.134;4.666;2023-11-18T03:28:31;36.70;;;19.27;;
53036;SDS011;38924;52.134;4.666;2023-11-18T03:30:56;28.23;;;17.85;;
53036;SDS011;38924;52.134;4.666;2023-11-18T03:33:22;29.25;;;17.17;;
53036;SDS011;38924;52.134;4.666;2023-11-18T03:35:48;31.02;;;16.80;;
53036;SDS011;38924;52.134;4.666;2023-11-18T03:38:14;43.40;;;18.17;;
53036;SDS011;38924;52.134;4.666;2023-11-18T03:40:40;31.90;;;16.55;;
53036;SDS011;38924;52.134;4.666;2023-11-18T03:43:07;25.75;;;15.25;;
53036;SDS011;38924;52.134;4.666;2023-11-18T03:45:33;30.85;;;16.80;;
53036;SDS011;38924;52.134;4.666;2023-11-18T03:48:01;35.67;;;17.38;;
53036;SDS011;38924;52.134;4.666;2023-11-18T03:50:28;35.67;;;16.48;;
53036;SDS011;38924;52.134;4.666;2023-11-18T03:52:54;28.15;;;16.08;;
53036;SDS011;38924;52.134;4.666;2023-11-18T03:55:19;34.58;;;17.20;;
53036;SDS011;38924;52.134;4.666;2023-11-18T03:57:45;26.20;;;15.90;;
53036;SDS011;38924;52.134;4.666;2023-11-18T04:00:11;27.20;;;15.65;;
53036;SDS011;38924;52.134;4.666;2023-11-18T04:02:39;32.20;;;14.98;;
53036;SDS011;38924;52.134;4.666;2023-11-18T04:05:05;27.65;;;16.52;;
53036;SDS011;38924;52.134;4.666;2023-11-18T04:07:34;29.05;;;15.00;;
53036;SDS011;38924;52.134;4.666;2023-11-18T04:10:00;26.70;;;15.57;;
53036;SDS011;38924;52.134;4.666;2023-11-18T04:12:25;23.23;;;15.13;;
53036;SDS011;38924;52.134;4.666;2023-11-18T04:14:52;27.70;;;15.27;;
53036;SDS011;38924;52.134;4.666;2023-11-18T04:17:18;22.50;;;14.07;;
53036;SDS011;38924;52.134;4.666;2023-11-18T04:19:44;28.15;;;15.45;;
53036;SDS011;38924;52.134;4.666;2023-11-18T04:22:10;26.88;;;16.50;;
53036;SDS011;38924;52.134;4.666;2023-11-18T04:24:37;28.70;;;15.85;;
53036;SDS011;38924;52.134;4.666;2023-11-18T04:27:02;36.47;;;17.05;;
53036;SDS011;38924;52.134;4.666;2023-11-18T04:29:28;31.42;;;15.63;;
53036;SDS011;38924;52.134;4.666;2023-11-18T04:31:54;31.67;;;17.13;;
53036;SDS011;38924;52.134;4.666;2023-11-18T04:34:20;25.05;;;16.77;;
53036;SDS011;38924;52.134;4.666;2023-11-18T04:36:45;26.20;;;17.35;;
53036;SDS011;38924;52.134;4.666;2023-11-18T04:39:11;23.38;;;17.48;;
53036;SDS011;38924;52.134;4.666;2023-11-18T04:41:38;32.35;;;17.92;;
53036;SDS011;38924;52.134;4.666;2023-11-18T04:44:04;32.15;;;18.70;;
53036;SDS011;38924;52.134;4.666;2023-11-18T04:46:30;29.08;;;16.65;;
53036;SDS011;38924;52.134;4.666;2023-11-18T04:48:56;27.67;;;17.42;;
53036;SDS011;38924;52.134;4.666;2023-11-18T04:51:21;28.92;;;16.40;;
53036;SDS011;38924;52.134;4.666;2023-11-18T04:53:50;30.58;;;19.80;;
53036;SDS011;38924;52.134;4.666;2023-11-18T04:56:16;27.90;;;16.77;;
53036;SDS011;38924;52.134;4.666;2023-11-18T04:58:43;42.15;;;19.98;;
53036;SDS011;38924;52.134;4.666;2023-11-18T05:01:13;33.40;;;17.33;;
53036;SDS011;38924;52.134;4.666;2023-11-18T05:03:38;26.48;;;15.48;;
53036;SDS011;38924;52.134;4.666;2023-11-18T05:06:05;33.92;;;17.33;;
53036;SDS011;38924;52.134;4.666;2023-11-18T05:08:31;29.90;;;17.25;;
53036;SDS011;38924;52.134;4.666;2023-11-18T05:10:57;26.15;;;16.92;;
53036;SDS011;38924;52.134;4.666;2023-11-18T05:13:23;33.15;;;17.27;;
53036;SDS011;38924;52.134;4.666;2023-11-18T05:15:49;33.10;;;15.52;;
53036;SDS011;38924;52.134;4.666;2023-11-18T05:18:15;27.70;;;16.27;;
53036;SDS011;38924;52.134;4.666;2023-11-18T05:20:44;30.25;;;17.35;;
53036;SDS011;38924;52.134;4.666;2023-11-18T05:23:10;29.02;;;16.40;;
53036;SDS011;38924;52.134;4.666;2023-11-18T05:25:36;26.83;;;15.77;;
53036;SDS011;38924;52.134;4.666;2023-11-18T05:28:02;30.77;;;15.50;;
53036;SDS011;38924;52.134;4.666;2023-11-18T05:30:28;27.45;;;17.50;;
53036;SDS011;38924;52.134;4.666;2023-11-18T05:32:56;27.30;;;15.05;;
53036;SDS011;38924;52.134;4.666;2023-11-18T05:35:24;27.58;;;16.38;;
53036;SDS011;38924;52.134;4.666;2023-11-18T05:37:54;27.25;;;15.70;;
53036;SDS011;38924;52.134;4.666;2023-11-18T05:40:19;32.50;;;17.98;;
53036;SDS011;38924;52.134;4.666;2023-11-18T05:42:45;38.95;;;16.50;;
53036;SDS011;38924;52.134;4.666;2023-11-18T05:45:13;29.70;;;15.40;;
53036;SDS011;38924;52.134;4.666;2023-11-18T05:47:56;28.02;;;16.40;;
53036;SDS011;38924;52.134;4.666;2023-11-18T05:50:22;26.20;;;16.02;;
53036;SDS011;38924;52.134;4.666;2023-11-18T05:52:50;33.83;;;16.60;;
53036;SDS011;38924;52.134;4.666;2023-11-18T05:55:16;29.92;;;16.02;;
53036;SDS011;38924;52.134;4.666;2023-11-18T05:57:42;27.33;;;15.45;;
53036;SDS011;38924;52.134;4.666;2023-11-18T06:00:13;32.55;;;14.90;;
53036;SDS011;38924;52.134;4.666;2023-11-18T06:02:41;33.88;;;16.30;;
53036;SDS011;38924;52.134;4.666;2023-11-18T06:05:07;31.13;;;17.15;;
53036;SDS011;38924;52.134;4.666;2023-11-18T06:07:33;27.92;;;15.70;;
53036;SDS011;38924;52.134;4.666;2023-11-18T06:10:00;32.30;;;15.75;;
53036;SDS011;38924;52.134;4.666;2023-11-18T06:12:27;27.13;;;16.20;;
53036;SDS011;38924;52.134;4.666;2023-11-18T06:14:52;27.80;;;16.60;;
53036;SDS011;38924;52.134;4.666;2023-11-18T06:17:18;30.90;;;16.52;;
53036;SDS011;38924;52.134;4.666;2023-11-18T06:19:44;33.20;;;16.63;;
53036;SDS011;38924;52.134;4.666;2023-11-18T06:22:10;36.63;;;16.38;;
53036;SDS011;38924;52.134;4.666;2023-11-18T06:24:36;34.40;;;16.10;;
53036;SDS011;38924;52.134;4.666;2023-11-18T06:27:07;30.30;;;15.95;;
53036;SDS011;38924;52.134;4.666;2023-11-18T06:29:34;27.58;;;16.50;;
53036;SDS011;38924;52.134;4.666;2023-11-18T06:32:00;30.00;;;17.38;;
53036;SDS011;38924;52.134;4.666;2023-11-18T06:34:25;29.67;;;16.73;;
53036;SDS011;38924;52.134;4.666;2023-11-18T06:36:52;35.08;;;18.48;;
53036;SDS011;38924;52.134;4.666;2023-11-18T06:39:18;37.67;;;16.50;;
53036;SDS011;38924;52.134;4.666;2023-11-18T06:41:45;36.92;;;18.50;;
53036;SDS011;38924;52.134;4.666;2023-11-18T06:44:16;27.80;;;17.17;;
53036;SDS011;38924;52.134;4.666;2023-11-18T06:46:43;34.55;;;17.25;;
53036;SDS011;38924;52.134;4.666;2023-11-18T06:49:09;39.95;;;17.83;;
53036;SDS011;38924;52.134;4.666;2023-11-18T06:51:36;37.70;;;17.23;;
53036;SDS011;38924;52.134;4.666;2023-11-18T06:54:06;38.05;;;15.68;;
53036;SDS011;38924;52.134;4.666;2023-11-18T06:56:35;30.25;;;16.88;;
53036;SDS011;38924;52.134;4.666;2023-11-18T06:59:07;39.28;;;17.88;;
53036;SDS011;38924;52.134;4.666;2023-11-18T07:01:33;29.48;;;16.00;;
53036;SDS011;38924;52.134;4.666;2023-11-18T07:03:59;42.35;;;18.00;;
53036;SDS011;38924;52.134;4.666;2023-11-18T07:06:25;36.85;;;16.90;;
53036;SDS011;38924;52.134;4.666;2023-11-18T07:08:52;44.90;;;17.92;;
53036;SDS011;38924;52.134;4.666;2023-11-18T07:11:18;33.00;;;15.88;;
53036;SDS011;38924;52.134;4.666;2023-11-18T07:13:44;36.22;;;15.35;;
53036;SDS011;38924;52.134;4.666;2023-11-18T07:16:10;50.42;;;16.35;;
53036;SDS011;38924;52.134;4.666;2023-11-18T07:18:36;35.72;;;16.30;;
53036;SDS011;38924;52.134;4.666;2023-11-18T07:21:11;38.08;;;16.33;;
53036;SDS011;38924;52.134;4.666;2023-11-18T07:23:37;44.03;;;17.85;;
53036;SDS011;38924;52.134;4.666;2023-11-18T07:26:02;36.53;;;15.45;;
53036;SDS011;38924;52.134;4.666;2023-11-18T07:28:31;59.47;;;16.23;;
53036;SDS011;38924;52.134;4.666;2023-11-18T07:30:57;38.33;;;16.88;;
53036;SDS011;38924;52.134;4.666;2023-11-18T07:33:23;44.50;;;15.55;;
53036;SDS011;38924;52.134;4.666;2023-11-18T07:35:49;33.25;;;15.07;;
53036;SDS011;38924;52.134;4.666;2023-11-18T07:38:15;32.97;;;15.18;;
53036;SDS011;38924;52.134;4.666;2023-11-18T07:40:41;39.33;;;15.13;;
53036;SDS011;38924;52.134;4.666;2023-11-18T07:43:08;33.63;;;15.50;;
53036;SDS011;38924;52.134;4.666;2023-11-18T07:45:40;34.85;;;14.27;;
53036;SDS011;38924;52.134;4.666;2023-11-18T07:48:08;30.85;;;14.70;;
53036;SDS011;38924;52.134;4.666;2023-11-18T07:50:37;33.97;;;14.07;;
53036;SDS011;38924;52.134;4.666;2023-11-18T07:53:03;35.25;;;16.30;;
53036;SDS011;38924;52.134;4.666;2023-11-18T07:55:29;34.33;;;14.40;;
53036;SDS011;38924;52.134;4.666;2023-11-18T07:57:55;35.70;;;14.80;;
53036;SDS011;38924;52.134;4.666;2023-11-18T08:00:21;40.47;;;14.75;;
53036;SDS011;38924;52.134;4.666;2023-11-18T08:02:46;28.92;;;14.10;;
53036;SDS011;38924;52.134;4.666;2023-11-18T08:05:15;35.95;;;15.60;;
53036;SDS011;38924;52.134;4.666;2023-11-18T08:07:41;26.77;;;13.23;;
53036;SDS011;38924;52.134;4.666;2023-11-18T08:10:07;29.92;;;14.73;;
53036;SDS011;38924;52.134;4.666;2023-11-18T08:12:38;28.13;;;15.52;;
53036;SDS011;38924;52.134;4.666;2023-11-18T08:15:04;26.70;;;14.25;;
53036;SDS011;38924;52.134;4.666;2023-11-18T08:17:32;30.83;;;15.70;;
53036;SDS011;38924;52.134;4.666;2023-11-18T08:19:59;41.38;;;15.23;;
53036;SDS011;38924;52.134;4.666;2023-11-18T08:22:25;36.70;;;15.60;;
53036;SDS011;38924;52.134;4.666;2023-11-18T08:24:51;29.55;;;14.45;;
53036;SDS011;38924;52.134;4.666;2023-11-18T08:27:17;29.73;;;15.50;;
53036;SDS011;38924;52.134;4.666;2023-11-18T08:29:43;28.73;;;14.35;;
53036;SDS011;38924;52.134;4.666;2023-11-18T08:32:08;27.67;;;13.98;;
53036;SDS011;38924;52.134;4.666;2023-11-18T08:34:35;36.20;;;14.60;;
53036;SDS011;38924;52.134;4.666;2023-11-18T08:37:05;37.28;;;14.90;;
53036;SDS011;38924;52.134;4.666;2023-11-18T08:39:31;25.90;;;15.50;;
53036;SDS011;38924;52.134;4.666;2023-11-18T08:41:57;33.63;;;14.15;;
53036;SDS011;38924;52.134;4.666;2023-11-18T08:44:23;28.23;;;15.48;;
53036;SDS011;38924;52.134;4.666;2023-11-18T08:46:50;28.77;;;14.27;;
53036;SDS011;38924;52.134;4.666;2023-11-18T08:49:20;31.60;;;15.10;;
53036;SDS011;38924;52.134;4.666;2023-11-18T08:51:48;32.45;;;15.48;;
53036;SDS011;38924;52.134;4.666;2023-11-18T08:54:21;41.10;;;16.45;;
53036;SDS011;38924;52.134;4.666;2023-11-18T08:56:51;33.78;;;14.38;;
53036;SDS011;38924;52.134;4.666;2023-11-18T08:59:20;34.72;;;14.95;;
53036;SDS011;38924;52.134;4.666;2023-11-18T09:01:51;39.13;;;13.95;;
53036;SDS011;38924;52.134;4.666;2023-11-18T09:04:21;36.72;;;15.10;;
53036;SDS011;38924;52.134;4.666;2023-11-18T09:06:47;32.47;;;14.48;;
53036;SDS011;38924;52.134;4.666;2023-11-18T09:09:14;34.13;;;14.98;;
53036;SDS011;38924;52.134;4.666;2023-11-18T09:11:41;27.65;;;14.65;;
53036;SDS011;38924;52.134;4.666;2023-11-18T09:14:08;27.83;;;13.75;;
53036;SDS011;38924;52.134;4.666;2023-11-18T09:16:34;38.33;;;14.43;;
53036;SDS011;38924;52.134;4.666;2023-11-18T09:19:05;32.90;;;15.00;;
53036;SDS011;38924;52.134;4.666;2023-11-18T09:21:31;28.13;;;13.35;;
53036;SDS011;38924;52.134;4.666;2023-11-18T09:24:01;30.85;;;14.40;;
53036;SDS011;38924;52.134;4.666;2023-11-18T09:26:30;28.90;;;12.18;;
53036;SDS011;38924;52.134;4.666;2023-11-18T09:28:56;24.13;;;12.73;;
53036;SDS011;38924;52.134;4.666;2023-11-18T09:31:22;39.03;;;15.98;;
53036;SDS011;38924;52.134;4.666;2023-11-18T09:33:48;28.60;;;13.27;;
53036;SDS011;38924;52.134;4.666;2023-11-18T09:36:17;31.98;;;12.00;;
53036;SDS011;38924;52.134;4.666;2023-11-18T09:38:43;28.88;;;11.90;;
53036;SDS011;38924;52.134;4.666;2023-11-18T09:41:12;26.33;;;11.40;;
53036;SDS011;38924;52.134;4.666;2023-11-18T09:43:38;24.85;;;11.05;;
53036;SDS011;38924;52.134;4.666;2023-11-18T09:46:14;25.38;;;11.45;;
53036;SDS011;38924;52.134;4.666;2023-11-18T09:51:41;31.77;;;10.98;;
53036;SDS011;38924;52.134;4.666;2023-11-18T09:54:10;49.80;;;11.77;;
53036;SDS011;38924;52.134;4.666;2023-11-18T09:56:41;22.63;;;11.68;;
53036;SDS011;38924;52.134;4.666;2023-11-18T10:01:46;33.30;;;9.77;;
53036;SDS011;38924;52.134;4.666;2023-11-18T10:04:17;29.25;;;11.02;;
53036;SDS011;38924;52.134;4.666;2023-11-18T10:06:46;20.70;;;8.80;;
53036;SDS011;38924;52.134;4.666;2023-11-18T10:09:18;31.80;;;9.10;;
53036;SDS011;38924;52.134;4.666;2023-11-18T10:11:50;27.58;;;10.25;;
53036;SDS011;38924;52.134;4.666;2023-11-18T10:14:20;25.52;;;9.40;;
53036;SDS011;38924;52.134;4.666;2023-11-18T10:16:46;27.98;;;8.88;;
53036;SDS011;38924;52.134;4.666;2023-11-18T10:19:17;16.27;;;7.32;;
53036;SDS011;38924;52.134;4.666;2023-11-18T10:21:43;22.42;;;8.32;;
53036;SDS011;38924;52.134;4.666;2023-11-18T10:24:09;17.85;;;7.85;;
53036;SDS011;38924;52.134;4.666;2023-11-18T10:26:56;20.13;;;7.07;;
53036;SDS011;38924;52.134;4.666;2023-11-18T10:29:23;26.55;;;7.63;;
53036;SDS011;38924;52.134;4.666;2023-11-18T10:31:50;22.30;;;6.85;;
53036;SDS011;38924;52.134;4.666;2023-11-18T10:34:19;14.57;;;6.05;;
53036;SDS011;38924;52.134;4.666;2023-11-18T10:37:01;18.27;;;6.68;;
53036;SDS011;38924;52.134;4.666;2023-11-18T10:39:32;16.42;;;5.95;;
53036;SDS011;38924;52.134;4.666;2023-11-18T10:42:01;23.02;;;6.60;;
53036;SDS011;38924;52.134;4.666;2023-11-18T10:44:27;15.13;;;6.05;;
53036;SDS011;38924;52.134;4.666;2023-11-18T10:46:53;19.60;;;6.47;;
53036;SDS011;38924;52.134;4.666;2023-11-18T10:49:22;19.30;;;6.65;;
53036;SDS011;38924;52.134;4.666;2023-11-18T10:51:47;19.42;;;6.63;;
53036;SDS011;38924;52.134;4.666;2023-11-18T10:54:15;12.90;;;6.57;;
53036;SDS011;38924;52.134;4.666;2023-11-18T10:56:49;27.52;;;6.95;;
53036;SDS011;38924;52.134;4.666;2023-11-18T10:59:18;21.63;;;6.82;;
53036;SDS011;38924;52.134;4.666;2023-11-18T11:01:46;20.67;;;8.38;;
53036;SDS011;38924;52.134;4.666;2023-11-18T11:04:14;17.10;;;6.82;;
53036;SDS011;38924;52.134;4.666;2023-11-18T11:06:43;21.05;;;7.57;;
53036;SDS011;38924;52.134;4.666;2023-11-18T11:09:11;23.17;;;8.00;;
53036;SDS011;38924;52.134;4.666;2023-11-18T11:11:46;13.73;;;6.38;;
53036;SDS011;38924;52.134;4.666;2023-11-18T11:14:14;20.33;;;6.53;;
53036;SDS011;38924;52.134;4.666;2023-11-18T11:16:44;18.02;;;7.72;;
53036;SDS011;38924;52.134;4.666;2023-11-18T11:19:24;14.15;;;6.43;;
53036;SDS011;38924;52.134;4.666;2023-11-18T11:22:01;17.85;;;6.50;;
53036;SDS011;38924;52.134;4.666;2023-11-18T11:24:44;16.88;;;6.82;;
53036;SDS011;38924;52.134;4.666;2023-11-18T11:27:33;11.32;;;5.15;;
53036;SDS011;38924;52.134;4.666;2023-11-18T11:30:08;16.30;;;6.30;;
53036;SDS011;38924;52.134;4.666;2023-11-18T11:32:39;20.17;;;6.20;;
53036;SDS011;38924;52.134;4.666;2023-11-18T11:35:14;15.48;;;7.95;;
53036;SDS011;38924;52.134;4.666;2023-11-18T11:37:44;14.73;;;6.38;;
53036;SDS011;38924;52.134;4.666;2023-11-18T11:40:10;18.65;;;7.22;;
53036;SDS011;38924;52.134;4.666;2023-11-18T11:42:40;15.52;;;7.28;;
53036;SDS011;38924;52.134;4.666;2023-11-18T11:45:08;15.15;;;7.20;;
53036;SDS011;38924;52.134;4.666;2023-11-18T11:47:50;16.83;;;5.97;;
53036;SDS011;38924;52.134;4.666;2023-11-18T11:50:21;13.95;;;6.10;;
53036;SDS011;38924;52.134;4.666;2023-11-18T11:52:59;14.80;;;6.30;;
53036;SDS011;38924;52.134;4.666;2023-11-18T11:57:58;15.38;;;7.03;;
53036;SDS011;38924;52.134;4.666;2023-11-18T12:00:24;11.48;;;6.53;;
53036;SDS011;38924;52.134;4.666;2023-11-18T12:02:52;13.27;;;5.57;;
53036;SDS011;38924;52.134;4.666;2023-11-18T12:05:25;13.43;;;6.70;;
53036;SDS011;38924;52.134;4.666;2023-11-18T12:07:54;14.60;;;6.50;;
53036;SDS011;38924;52.134;4.666;2023-11-18T12:10:21;13.25;;;6.65;;
53036;SDS011;38924;52.134;4.666;2023-11-18T12:12:47;14.95;;;6.28;;
53036;SDS011;38924;52.134;4.666;2023-11-18T12:15:13;21.60;;;6.57;;
53036;SDS011;38924;52.134;4.666;2023-11-18T12:20:40;14.70;;;7.25;;
53036;SDS011;38924;52.134;4.666;2023-11-18T12:23:07;14.55;;;5.97;;
53036;SDS011;38924;52.134;4.666;2023-11-18T12:25:40;18.13;;;5.65;;
53036;SDS011;38924;52.134;4.666;2023-11-18T12:28:09;12.55;;;6.28;;
53036;SDS011;38924;52.134;4.666;2023-11-18T12:33:03;11.68;;;6.80;;
53036;SDS011;38924;52.134;4.666;2023-11-18T12:40:55;17.63;;;5.18;;
53036;SDS011;38924;52.134;4.666;2023-11-18T12:48:28;11.05;;;5.47;;
53036;SDS011;38924;52.134;4.666;2023-11-18T12:51:02;9.63;;;5.07;;
53036;SDS011;38924;52.134;4.666;2023-11-18T12:53:28;10.27;;;4.93;;
53036;SDS011;38924;52.134;4.666;2023-11-18T12:55:54;12.68;;;5.22;;
53036;SDS011;38924;52.134;4.666;2023-11-18T12:58:21;16.50;;;5.75;;
53036;SDS011;38924;52.134;4.666;2023-11-18T13:00:48;7.45;;;4.55;;
53036;SDS011;38924;52.134;4.666;2023-11-18T13:03:15;14.25;;;4.60;;
53036;SDS011;38924;52.134;4.666;2023-11-18T13:05:41;5.50;;;4.15;;
53036;SDS011;38924;52.134;4.666;2023-11-18T13:08:08;7.57;;;4.50;;
53036;SDS011;38924;52.134;4.666;2023-11-18T13:10:35;7.68;;;3.88;;
53036;SDS011;38924;52.134;4.666;2023-11-18T13:13:02;7.18;;;3.97;;
53036;SDS011;38924;52.134;4.666;2023-11-18T13:15:30;5.05;;;3.65;;
53036;SDS011;38924;52.134;4.666;2023-11-18T13:17:56;6.82;;;3.42;;
53036;SDS011;38924;52.134;4.666;2023-11-18T13:20:22;5.90;;;4.03;;
53036;SDS011;38924;52.134;4.666;2023-11-18T13:22:50;9.05;;;4.15;;
53036;SDS011;38924;52.134;4.666;2023-11-18T13:25:16;6.30;;;3.35;;
53036;SDS011;38924;52.134;4.666;2023-11-18T13:27:42;7.05;;;3.30;;
53036;SDS011;38924;52.134;4.666;2023-11-18T13:30:08;3.67;;;2.92;;
53036;SDS011;38924;52.134;4.666;2023-11-18T13:32:41;4.82;;;3.38;;
53036;SDS011;38924;52.134;4.666;2023-11-18T13:35:07;4.22;;;2.67;;
53036;SDS011;38924;52.134;4.666;2023-11-18T13:37:33;5.13;;;3.05;;
53036;SDS011;38924;52.134;4.666;2023-11-18T13:39:59;4.60;;;2.50;;
53036;SDS011;38924;52.134;4.666;2023-11-18T13:42:25;4.40;;;2.95;;
53036;SDS011;38924;52.134;4.666;2023-11-18T13:44:53;4.15;;;3.03;;
53036;SDS011;38924;52.134;4.666;2023-11-18T13:47:25;10.35;;;2.78;;
53036;SDS011;38924;52.134;4.666;2023-11-18T13:49:55;5.05;;;2.70;;
53036;SDS011;38924;52.134;4.666;2023-11-18T13:52:23;5.28;;;2.35;;
53036;SDS011;38924;52.134;4.666;2023-11-18T13:54:51;4.82;;;2.70;;
53036;SDS011;38924;52.134;4.666;2023-11-18T13:57:21;3.17;;;2.28;;
53036;SDS011;38924;52.134;4.666;2023-11-18T13:59:53;3.65;;;2.78;;
53036;SDS011;38924;52.134;4.666;2023-11-18T14:02:20;3.85;;;2.40;;
53036;SDS011;38924;52.134;4.666;2023-11-18T14:04:46;4.72;;;2.15;;
53036;SDS011;38924;52.134;4.666;2023-11-18T14:07:14;3.78;;;2.88;;
53036;SDS011;38924;52.134;4.666;2023-11-18T14:09:43;4.82;;;2.70;;
53036;SDS011;38924;52.134;4.666;2023-11-18T14:12:11;4.47;;;2.90;;
53036;SDS011;38924;52.134;4.666;2023-11-18T14:14:37;3.42;;;2.58;;
53036;SDS011;38924;52.134;4.666;2023-11-18T14:17:06;3.78;;;2.95;;
53036;SDS011;38924;52.134;4.666;2023-11-18T14:19:32;4.85;;;3.00;;
53036;SDS011;38924;52.134;4.666;2023-11-18T14:22:00;3.10;;;2.65;;
53036;SDS011;38924;52.134;4.666;2023-11-18T14:24:26;3.28;;;2.72;;
53036;SDS011;38924;52.134;4.666;2023-11-18T14:26:55;3.72;;;3.03;;
53036;SDS011;38924;52.134;4.666;2023-11-18T14:29:22;3.10;;;2.78;;
53036;SDS011;38924;52.134;4.666;2023-11-18T14:31:48;5.18;;;2.92;;
53036;SDS011;38924;52.134;4.666;2023-11-18T14:34:14;6.65;;;3.85;;
53036;SDS011;38924;52.134;4.666;2023-11-18T14:36:40;2.90;;;2.53;;
53036;SDS011;38924;52.134;4.666;2023-11-18T14:39:06;2.92;;;2.63;;
53036;SDS011;38924;52.134;4.666;2023-11-18T14:41:35;3.53;;;2.92;;
53036;SDS011;38924;52.134;4.666;2023-11-18T14:44:01;3.30;;;2.95;;
53036;SDS011;38924;52.134;4.666;2023-11-18T14:46:30;4.75;;;3.22;;
53036;SDS011;38924;52.134;4.666;2023-11-18T14:48:57;3.13;;;2.53;;
53036;SDS011;38924;52.134;4.666;2023-11-18T14:51:22;4.20;;;2.85;;
53036;SDS011;38924;52.134;4.666;2023-11-18T14:53:48;3.05;;;2.45;;
53036;SDS011;38924;52.134;4.666;2023-11-18T14:56:14;4.32;;;3.13;;